Here is the Quick Look data you requested

The Data originates at the National Weather Service, and is made available here by the UAlbany Department of Atmospheric and Environmental Sciences

Surface Observations

PHBK 271456Z AUTO 08006KT 10SM CLR 23/19 A3006 RMK AO2 SLP182 T02330194 53002=
PHHI 271458Z AUTO 00000KT 10SM FEW026 23/19 A3007 RMK AO2 SLP170 T02320189
 53001 $=
PHJR 271453Z AUTO 06003KT 10SM FEW032 BKN044 24/19 A3008 RMK AO2 SLP192
 T02390189 53001 TSNO=
PHKO 271453Z AUTO 08005KT 10SM BKN050 27/19 A3001 RMK AO2 SLP163 T02670194
 55000 PWINO TSNO=
PHLI 271453Z AUTO 07011KT 10SM SCT021 26/21 A3010 RMK AO2 SLP189 T02560211
 55000 TSNO $=
PHMK 271454Z AUTO 04013G19KT 10SM CLR 24/20 A3007 RMK AO2 SLP185 T02440200
 53003 TSNO=
PHNG 271457Z 07006G14KT 7SM FEW047 26/21 A3006 RMK SLP172 T02610211 53001=
PHNL 271453Z 06012KT 10SM FEW039 SCT049 25/19 A3007 RMK AO2 SLP181 T02500194
 53001=
PHNY 271456Z AUTO 04007KT 10SM FEW033 21/19 A3012 RMK AO2 SLP178 T02060189
 53001=
PHOG 271454Z AUTO 04012KT 10SM CLR 24/21 A3005 RMK AO2 SLP180 T02440206 53001
 TSNO=
PHSF 271456Z AUTO 12008G17KT 10SM CLR 17/M05 A3035 RMK AO2 SLP143 WND DATA
 ESTMD T01731054 55000 $=
PHTO 271453Z AUTO 23006KT 10SM OVC050 24/16 A3006 RMK AO2 SLP179 T02390156
 56002 TSNO=
PMDY 271456Z AUTO 08009KT 10SM CLR 23/19 A3014 RMK AO2 SLP205 T02280189 56012=